Time;durP1;ratioP1;P1;durP2;ratioP2;P2;SDS_P1;SDS_P2;PMS_P1;PMS_P2;Temp;Humidity;BMP_temperature;BMP_pressure;BME280_temperature;BME280_humidity;BME280_pressure;Samples;Min_cycle;Max_cycle;Signal;HPM_P1;HPM_P2
2023/04/28 00:01:33;;;;;;;1.95;1.25;;;21.20;59.80;;;;;;5045147;28;20194;-67
2023/04/28 00:04:00;;;;;;;2.00;1.10;;;21.20;60.70;;;;;;5055578;28;20198;-67
2023/04/28 00:06:27;;;;;;;1.02;0.93;;;21.20;60.00;;;;;;5056876;28;20222;-66
2023/04/28 00:08:53;;;;;;;1.30;0.80;;;21.20;60.00;;;;;;5052670;28;20210;-67
2023/04/28 00:11:20;;;;;;;1.92;1.00;;;21.20;60.00;;;;;;5056005;28;20206;-67
2023/04/28 00:13:47;;;;;;;3.85;1.20;;;21.20;60.00;;;;;;5057086;28;20639;-66
2023/04/28 00:16:15;;;;;;;1.00;0.90;;;21.20;60.00;;;;;;5065347;28;20199;-67
2023/04/28 00:18:41;;;;;;;1.92;0.90;;;21.20;60.10;;;;;;5054157;28;20237;-67
2023/04/28 00:21:08;;;;;;;2.17;0.93;;;21.20;60.10;;;;;;5059493;28;20195;-66
2023/04/28 00:23:35;;;;;;;1.50;1.00;;;21.10;60.00;;;;;;5065186;28;20305;-67
2023/04/28 00:26:01;;;;;;;1.10;1.00;;;21.10;60.10;;;;;;5058121;28;20395;-67
2023/04/28 00:28:28;;;;;;;1.20;1.10;;;21.10;60.20;;;;;;5047317;28;20195;-66
2023/04/28 00:30:55;;;;;;;2.05;1.00;;;21.10;60.10;;;;;;5045785;28;20203;-67
2023/04/28 00:33:22;;;;;;;1.60;1.27;;;21.10;60.20;;;;;;5055117;28;20223;-66
2023/04/28 00:35:49;;;;;;;1.20;1.10;;;21.10;60.20;;;;;;5056570;28;20214;-66
2023/04/28 00:38:16;;;;;;;1.52;1.17;;;21.00;60.10;;;;;;5060618;28;20855;-66
2023/04/28 00:40:42;;;;;;;1.45;1.20;;;21.00;60.10;;;;;;5058260;28;20249;-66
2023/04/28 00:43:09;;;;;;;1.00;0.90;;;21.00;60.10;;;;;;5054261;28;20724;-66
2023/04/28 00:45:36;;;;;;;1.40;1.17;;;21.00;60.10;;;;;;5052852;28;20195;-67
2023/04/28 00:48:03;;;;;;;1.10;0.80;;;21.00;60.10;;;;;;5056095;28;20602;-65
2023/04/28 00:50:31;;;;;;;1.10;1.00;;;21.00;60.20;;;;;;5052504;28;20614;-64
2023/04/28 00:52:58;;;;;;;1.08;0.98;;;21.00;60.20;;;;;;5056282;28;20203;-65
2023/04/28 00:55:26;;;;;;;1.38;1.27;;;21.00;60.30;;;;;;5058377;28;20245;-66
2023/04/28 00:57:55;;;;;;;2.97;0.90;;;20.90;60.10;;;;;;5061277;28;20667;-66
2023/04/28 01:00:22;;;;;;;1.08;0.80;;;21.00;60.40;;;;;;5044519;28;20203;-66
2023/04/28 01:02:50;;;;;;;2.00;1.10;;;20.90;60.30;;;;;;5049236;28;20725;-66
2023/04/28 01:05:17;;;;;;;1.20;0.90;;;21.00;60.40;;;;;;5050053;28;20195;-66
2023/04/28 01:07:45;;;;;;;1.00;0.90;;;20.90;60.30;;;;;;5058553;28;20211;-66
2023/04/28 01:10:11;;;;;;;1.63;1.08;;;20.90;60.30;;;;;;5060495;28;20200;-66
2023/04/28 01:12:38;;;;;;;1.17;0.98;;;20.90;60.40;;;;;;5052640;28;20195;-66
2023/04/28 01:15:06;;;;;;;1.27;1.00;;;20.90;60.40;;;;;;5061904;28;20202;-66
2023/04/28 01:17:33;;;;;;;1.27;1.13;;;20.90;60.50;;;;;;5053157;28;20203;-66
2023/04/28 01:20:00;;;;;;;1.40;1.00;;;20.90;60.50;;;;;;5057296;28;20199;-66
2023/04/28 01:22:26;;;;;;;1.45;1.05;;;20.90;60.60;;;;;;5063297;28;20211;-66
2023/04/28 01:24:55;;;;;;;1.38;0.95;;;20.90;60.60;;;;;;5054667;28;20202;-66
2023/04/28 01:27:23;;;;;;;1.08;0.80;;;20.90;60.60;;;;;;5050864;28;20215;-66
2023/04/28 01:29:49;;;;;;;1.23;1.13;;;20.90;60.60;;;;;;5055169;28;20200;-66
2023/04/28 01:32:16;;;;;;;1.92;1.20;;;20.80;60.50;;;;;;5051886;28;20535;-66
2023/04/28 01:34:43;;;;;;;1.35;1.00;;;20.80;60.60;;;;;;5055608;28;20195;-65
2023/04/28 01:37:09;;;;;;;1.15;1.00;;;20.80;60.60;;;;;;5063153;28;20199;-66
2023/04/28 01:39:36;;;;;;;1.33;1.00;;;20.80;60.60;;;;;;5051008;28;20200;-67
2023/04/28 01:42:04;;;;;;;1.00;0.88;;;20.80;60.60;;;;;;5062294;28;20207;-66
2023/04/28 01:44:31;;;;;;;1.60;1.30;;;20.80;60.70;;;;;;5057157;28;20217;-67
2023/04/28 01:46:57;;;;;;;1.10;1.00;;;20.80;60.60;;;;;;5058652;28;20705;-66
2023/04/28 01:49:24;;;;;;;1.10;0.90;;;20.80;60.70;;;;;;5057348;28;20191;-66
2023/04/28 01:51:51;;;;;;;0.90;0.75;;;20.80;60.70;;;;;;5057018;28;20725;-66
2023/04/28 01:54:17;;;;;;;1.95;1.08;;;20.80;61.60;;;;;;5059571;28;20191;-67
2023/04/28 01:56:44;;;;;;;1.20;0.82;;;20.70;60.60;;;;;;5045238;28;20206;-66
2023/04/28 01:59:12;;;;;;;1.38;1.00;;;20.80;60.70;;;;;;5056174;28;21260;-64
2023/04/28 02:01:39;;;;;;;1.05;0.95;;;20.70;60.60;;;;;;5051284;28;20195;-66
2023/04/28 02:04:05;;;;;;;2.60;0.90;;;20.70;60.60;;;;;;5065325;28;20199;-63
2023/04/28 02:06:32;;;;;;;1.10;1.00;;;20.70;60.60;;;;;;5056873;28;20201;-66
2023/04/28 02:08:59;;;;;;;1.20;1.00;;;20.70;60.70;;;;;;5047728;28;20199;-64
2023/04/28 02:11:25;;;;;;;1.08;0.90;;;20.70;60.70;;;;;;5054589;28;20207;-66
2023/04/28 02:13:52;;;;;;;1.20;1.10;;;20.70;60.70;;;;;;5060203;28;21755;-64
2023/04/28 02:16:20;;;;;;;2.25;0.80;;;20.70;60.70;;;;;;5048771;28;20273;-67
2023/04/28 02:18:47;;;;;;;1.05;0.90;;;20.70;60.80;;;;;;5057070;28;20357;-65
2023/04/28 02:21:13;;;;;;;1.10;0.90;;;20.70;60.90;;;;;;5055159;28;20198;-66
2023/04/28 02:23:40;;;;;;;1.27;1.15;;;20.60;60.80;;;;;;5057556;28;20621;-66
2023/04/28 02:26:07;;;;;;;1.23;1.05;;;20.60;60.80;;;;;;5061892;28;20198;-66
2023/04/28 02:28:33;;;;;;;1.17;0.90;;;20.60;60.80;;;;;;5067291;28;20215;-66
2023/04/28 02:31:04;;;;;;;2.30;1.10;;;20.60;60.80;;;;;;5054475;28;20204;-67
2023/04/28 02:33:33;;;;;;;1.00;0.80;;;20.60;60.90;;;;;;5056829;28;20200;-66
2023/04/28 02:36:00;;;;;;;1.20;0.90;;;20.60;60.90;;;;;;5063533;28;20726;-66
2023/04/28 02:38:27;;;;;;;1.10;0.88;;;20.60;61.00;;;;;;5060558;28;20289;-67
2023/04/28 02:40:58;;;;;;;1.30;1.15;;;20.60;60.90;;;;;;5056326;28;20197;-66
2023/04/28 02:43:25;;;;;;;1.00;0.80;;;20.60;60.90;;;;;;5056180;28;20223;-66
2023/04/28 02:45:52;;;;;;;1.00;0.90;;;20.60;60.90;;;;;;5053253;28;20211;-66
2023/04/28 02:48:19;;;;;;;1.55;0.90;;;20.60;61.00;;;;;;5050310;28;20215;-67
2023/04/28 02:50:47;;;;;;;1.55;1.02;;;20.60;61.00;;;;;;5052775;28;20203;-66
2023/04/28 02:53:14;;;;;;;1.15;0.85;;;20.60;61.00;;;;;;5058295;28;20195;-66
2023/04/28 02:55:41;;;;;;;1.27;0.90;;;20.60;61.00;;;;;;5054546;28;20195;-67
2023/04/28 02:58:07;;;;;;;1.10;0.95;;;20.60;61.00;;;;;;5053846;28;20203;-66
2023/04/28 03:00:34;;;;;;;1.00;0.90;;;20.60;61.00;;;;;;5057226;28;20195;-66
2023/04/28 03:03:01;;;;;;;1.50;0.93;;;20.60;60.90;;;;;;5052269;28;20199;-65
2023/04/28 03:05:28;;;;;;;1.33;0.90;;;20.60;61.00;;;;;;5060639;28;20637;-66
2023/04/28 03:07:56;;;;;;;1.08;0.98;;;20.60;61.00;;;;;;5047618;28;20215;-65
2023/04/28 03:10:23;;;;;;;1.20;1.00;;;20.60;61.10;;;;;;5046652;28;20658;-66
2023/04/28 03:12:50;;;;;;;1.10;0.80;;;20.60;61.10;;;;;;5054339;28;20203;-66
2023/04/28 03:15:17;;;;;;;1.75;1.10;;;20.50;60.90;;;;;;5058047;28;20210;-65
2023/04/28 03:17:43;;;;;;;1.00;0.90;;;20.50;61.00;;;;;;5057293;28;20195;-66
2023/04/28 03:20:11;;;;;;;1.40;1.00;;;20.50;61.00;;;;;;5055498;28;20221;-66
2023/04/28 03:22:38;;;;;;;1.35;0.90;;;20.50;61.00;;;;;;5056599;28;20223;-66
2023/04/28 03:25:07;;;;;;;1.13;0.90;;;20.50;61.00;;;;;;5049798;28;20240;-67
2023/04/28 03:27:33;;;;;;;1.20;1.00;;;20.50;61.00;;;;;;5063916;28;20214;-65
2023/04/28 03:30:00;;;;;;;1.00;0.90;;;20.50;61.00;;;;;;5060843;28;20199;-67
2023/04/28 03:32:27;;;;;;;1.00;0.80;;;20.50;61.10;;;;;;5060657;28;20196;-65
2023/04/28 03:34:53;;;;;;;1.20;0.80;;;20.40;61.00;;;;;;5059405;28;20202;-66
2023/04/28 03:37:20;;;;;;;1.20;1.00;;;20.50;61.20;;;;;;5059372;28;20195;-66
2023/04/28 03:39:47;;;;;;;1.00;0.90;;;20.50;61.20;;;;;;5055305;28;20835;-66
2023/04/28 03:42:15;;;;;;;1.35;1.25;;;20.50;61.40;;;;;;5046476;28;20205;-65
2023/04/28 03:44:41;;;;;;;1.00;0.80;;;20.50;61.30;;;;;;5049153;28;21754;-65
2023/04/28 03:47:08;;;;;;;1.13;0.90;;;20.40;61.20;;;;;;5052618;28;20682;-66
2023/04/28 03:49:35;;;;;;;1.10;0.90;;;20.40;61.10;;;;;;5065744;28;20570;-67
2023/04/28 03:52:03;;;;;;;1.10;0.90;;;20.40;61.10;;;;;;5051845;28;20201;-66
2023/04/28 03:54:29;;;;;;;1.00;0.80;;;20.40;61.10;;;;;;5059992;28;20202;-66
2023/04/28 03:56:56;;;;;;;1.00;0.80;;;20.40;61.10;;;;;;5061562;28;20204;-66
2023/04/28 03:59:24;;;;;;;1.38;0.95;;;20.40;61.10;;;;;;5059304;28;20249;-65
2023/04/28 04:01:51;;;;;;;1.30;1.20;;;20.40;61.10;;;;;;5066970;28;20535;-66
2023/04/28 04:04:18;;;;;;;1.27;1.00;;;20.40;61.00;;;;;;5062795;28;20203;-66
2023/04/28 04:06:44;;;;;;;0.90;0.75;;;20.40;61.10;;;;;;5051856;28;20199;-65
2023/04/28 04:09:11;;;;;;;1.23;1.05;;;20.40;61.20;;;;;;5062940;28;20686;-66
2023/04/28 04:11:38;;;;;;;1.20;0.77;;;20.40;61.20;;;;;;5059647;28;20225;-64
2023/04/28 04:14:05;;;;;;;1.40;1.15;;;20.40;61.20;;;;;;5056461;28;20203;-63
2023/04/28 04:16:33;;;;;;;1.10;1.00;;;20.40;61.20;;;;;;5061030;28;20654;-66
2023/04/28 04:18:59;;;;;;;1.20;0.90;;;20.40;61.20;;;;;;5060202;28;20651;-66
2023/04/28 04:21:26;;;;;;;1.65;1.00;;;20.40;61.20;;;;;;5065305;28;20195;-66
2023/04/28 04:23:53;;;;;;;1.00;0.90;;;20.40;61.20;;;;;;5053888;28;20549;-66
2023/04/28 04:26:20;;;;;;;1.15;0.95;;;20.40;61.20;;;;;;5051836;28;20202;-66
2023/04/28 04:28:47;;;;;;;1.05;0.90;;;20.40;61.20;;;;;;5060455;28;20233;-66
2023/04/28 04:31:14;;;;;;;0.90;0.80;;;20.40;61.30;;;;;;5053779;28;20638;-66
2023/04/28 04:33:42;;;;;;;1.02;0.93;;;20.40;61.30;;;;;;5062206;28;20287;-65
2023/04/28 04:36:09;;;;;;;1.08;0.98;;;20.30;61.30;;;;;;5054046;28;20194;-66
2023/04/28 04:38:36;;;;;;;0.98;0.80;;;20.30;61.30;;;;;;5052296;28;20249;-66
2023/04/28 04:41:02;;;;;;;1.10;0.93;;;20.30;61.30;;;;;;5060043;28;20256;-65
2023/04/28 04:43:29;;;;;;;1.08;0.98;;;20.30;61.30;;;;;;5061275;28;20206;-66
2023/04/28 04:45:56;;;;;;;1.05;0.90;;;20.30;61.30;;;;;;5049852;28;20682;-66
2023/04/28 04:48:23;;;;;;;1.00;0.90;;;20.30;61.30;;;;;;5068324;28;20230;-66
2023/04/28 04:50:51;;;;;;;1.27;1.17;;;20.30;61.40;;;;;;5050731;28;20562;-67
2023/04/28 04:53:17;;;;;;;1.42;0.90;;;20.30;61.40;;;;;;5058057;28;20248;-66
2023/04/28 04:55:44;;;;;;;1.10;1.00;;;20.30;61.40;;;;;;5055386;28;20538;-66
2023/04/28 04:58:11;;;;;;;1.20;1.10;;;20.30;61.30;;;;;;5056776;28;20265;-65
2023/04/28 05:00:38;;;;;;;0.90;0.80;;;20.30;61.40;;;;;;5046599;28;20299;-66
2023/04/28 05:03:05;;;;;;;1.25;0.98;;;20.30;61.40;;;;;;5061055;28;20593;-66
2023/04/28 05:05:33;;;;;;;1.00;0.80;;;20.30;61.40;;;;;;5061681;28;20286;-66
2023/04/28 05:08:02;;;;;;;1.10;0.80;;;20.30;61.40;;;;;;5058205;28;20241;-66
2023/04/28 05:10:29;;;;;;;1.00;0.80;;;20.30;61.40;;;;;;5051367;28;20199;-66
2023/04/28 05:12:55;;;;;;;1.48;1.00;;;20.30;61.30;;;;;;5064018;28;20485;-66
2023/04/28 05:15:22;;;;;;;1.20;0.82;;;20.30;61.40;;;;;;5063408;28;20195;-66
2023/04/28 05:17:49;;;;;;;1.02;0.93;;;20.30;61.40;;;;;;5052623;28;20249;-66
2023/04/28 05:20:16;;;;;;;1.10;1.00;;;20.30;61.40;;;;;;5064846;28;20209;-66
2023/04/28 05:22:42;;;;;;;1.08;0.90;;;20.20;61.40;;;;;;5061618;28;20222;-66
2023/04/28 05:25:11;;;;;;;1.60;1.10;;;20.30;61.40;;;;;;5056167;28;20664;-66
2023/04/28 05:27:39;;;;;;;1.13;0.80;;;20.30;61.40;;;;;;5057480;28;20195;-66
2023/04/28 05:30:07;;;;;;;1.00;0.80;;;20.30;61.40;;;;;;5055431;28;20200;-65
2023/04/28 05:32:34;;;;;;;1.00;0.90;;;20.30;61.50;;;;;;5060429;28;20194;-66
2023/04/28 05:35:01;;;;;;;1.13;0.95;;;20.30;61.40;;;;;;5057092;28;20285;-67
2023/04/28 05:37:28;;;;;;;1.10;0.80;;;20.30;61.40;;;;;;5059165;28;20200;-63
2023/04/28 05:39:54;;;;;;;1.38;0.80;;;20.40;61.50;;;;;;5051307;28;20214;-66
2023/04/28 05:42:22;;;;;;;1.27;1.00;;;20.40;61.60;;;;;;5061418;28;20204;-66
2023/04/28 05:44:49;;;;;;;1.60;0.93;;;20.40;61.50;;;;;;5051190;28;20211;-66
2023/04/28 05:47:16;;;;;;;1.00;0.90;;;20.40;61.50;;;;;;5060410;28;20249;-66
2023/04/28 05:49:43;;;;;;;0.90;0.80;;;20.40;61.40;;;;;;5055840;28;20234;-65
2023/04/28 05:52:09;;;;;;;0.88;0.75;;;20.40;61.50;;;;;;5050638;28;20192;-66
2023/04/28 05:54:36;;;;;;;1.13;0.82;;;20.40;61.50;;;;;;5060179;28;20264;-65
2023/04/28 05:57:03;;;;;;;1.00;0.80;;;20.40;61.50;;;;;;5056043;28;20199;-65
2023/04/28 05:59:31;;;;;;;0.90;0.80;;;20.40;61.50;;;;;;5055729;28;20264;-63
2023/04/28 06:01:57;;;;;;;1.40;0.95;;;20.40;61.50;;;;;;5056858;28;20200;-65
2023/04/28 06:04:25;;;;;;;0.93;0.82;;;20.40;61.50;;;;;;5055406;28;20611;-64
2023/04/28 06:06:52;;;;;;;1.00;0.90;;;20.40;61.60;;;;;;5056784;28;20206;-65
2023/04/28 06:09:19;;;;;;;1.20;1.10;;;20.40;61.50;;;;;;5051326;28;20227;-65
2023/04/28 06:11:45;;;;;;;1.00;0.80;;;20.40;61.50;;;;;;5054083;28;20563;-65
2023/04/28 06:14:12;;;;;;;1.60;0.90;;;20.50;61.60;;;;;;5055943;28;20199;-66
2023/04/28 06:16:40;;;;;;;0.90;0.70;;;20.50;61.60;;;;;;5051830;28;20647;-65
2023/04/28 06:19:07;;;;;;;0.90;0.80;;;20.50;61.50;;;;;;5062806;28;20207;-65
2023/04/28 06:21:34;;;;;;;1.40;1.10;;;20.50;61.50;;;;;;5056153;28;20278;-66
2023/04/28 06:24:01;;;;;;;1.40;1.00;;;20.50;61.40;;;;;;5053325;28;20398;-64
2023/04/28 06:26:27;;;;;;;0.90;0.70;;;20.50;61.50;;;;;;5046762;28;20980;-65
2023/04/28 06:28:54;;;;;;;0.90;0.75;;;20.50;61.50;;;;;;5061114;28;20261;-65
2023/04/28 06:31:21;;;;;;;1.48;1.00;;;20.60;61.60;;;;;;5058880;28;20195;-64
2023/04/28 06:33:49;;;;;;;1.00;0.90;;;20.60;61.60;;;;;;5059294;28;20251;-65
2023/04/28 06:36:16;;;;;;;0.90;0.80;;;20.60;61.60;;;;;;5060882;28;20655;-65
2023/04/28 06:38:43;;;;;;;1.00;0.70;;;20.60;61.50;;;;;;5061156;28;20227;-64
2023/04/28 06:41:10;;;;;;;1.25;1.10;;;20.60;61.50;;;;;;5067993;28;20195;-65
2023/04/28 06:43:37;;;;;;;0.98;0.80;;;20.60;61.60;;;;;;5062001;28;20230;-65
2023/04/28 06:46:04;;;;;;;1.00;0.70;;;20.60;61.50;;;;;;5049974;28;20257;-65
2023/04/28 06:48:31;;;;;;;1.00;0.82;;;20.60;61.50;;;;;;5052548;28;20285;-65
2023/04/28 06:50:59;;;;;;;0.90;0.70;;;20.60;61.50;;;;;;5047059;28;20195;-64
2023/04/28 06:53:26;;;;;;;1.02;0.85;;;20.60;61.50;;;;;;5049704;28;20196;-65
2023/04/28 06:55:52;;;;;;;1.00;0.90;;;20.60;61.50;;;;;;5047717;28;20219;-65
2023/04/28 06:58:20;;;;;;;1.20;0.90;;;20.60;61.50;;;;;;5060863;28;20191;-64
2023/04/28 07:00:46;;;;;;;0.90;0.77;;;20.60;61.50;;;;;;5043807;28;20199;-64
2023/04/28 07:03:13;;;;;;;1.20;1.02;;;20.60;61.50;;;;;;5049659;28;20207;-65
2023/04/28 07:05:40;;;;;;;1.50;0.88;;;20.60;61.50;;;;;;5050568;28;20199;-64
2023/04/28 07:08:08;;;;;;;1.10;1.00;;;20.60;61.50;;;;;;5051331;28;20204;-64
2023/04/28 07:10:34;;;;;;;1.02;0.80;;;20.60;61.50;;;;;;5046903;28;20678;-64
2023/04/28 07:13:01;;;;;;;1.10;0.90;;;20.60;61.50;;;;;;5052327;28;20198;-64
2023/04/28 07:15:28;;;;;;;1.30;0.98;;;20.60;61.50;;;;;;5055751;28;20206;-64
2023/04/28 07:17:55;;;;;;;1.10;0.90;;;20.60;61.50;;;;;;5056597;28;20196;-64
2023/04/28 07:20:22;;;;;;;1.00;0.90;;;20.60;61.50;;;;;;5051603;28;20261;-64
2023/04/28 07:22:48;;;;;;;1.00;0.82;;;20.60;61.50;;;;;;5047897;28;20224;-65
2023/04/28 07:25:16;;;;;;;0.90;0.70;;;20.60;61.60;;;;;;5047179;28;20225;-64
2023/04/28 07:27:43;;;;;;;4.47;1.05;;;20.60;61.60;;;;;;5041371;28;20237;-64
2023/04/28 07:30:10;;;;;;;1.02;0.93;;;20.60;61.70;;;;;;5041719;28;20218;-64
2023/04/28 07:32:37;;;;;;;2.45;1.05;;;20.60;62.00;;;;;;5053236;28;20199;-64
2023/04/28 07:35:04;;;;;;;1.10;1.00;;;20.60;62.00;;;;;;5057315;28;20675;-64
2023/04/28 07:37:31;;;;;;;1.10;0.80;;;20.60;62.20;;;;;;5053120;28;20589;-65
2023/04/28 07:39:57;;;;;;;1.45;0.98;;;20.60;62.00;;;;;;5046503;28;20552;-64
2023/04/28 07:42:26;;;;;;;1.00;0.90;;;20.60;62.10;;;;;;5055494;28;20195;-64
2023/04/28 07:44:52;;;;;;;1.40;0.95;;;20.60;62.10;;;;;;5049110;28;20207;-64
2023/04/28 07:47:19;;;;;;;0.90;0.77;;;20.60;62.10;;;;;;5058400;28;20659;-65
2023/04/28 07:49:46;;;;;;;1.20;1.00;;;20.60;62.10;;;;;;5051480;28;20704;-64
2023/04/28 07:52:12;;;;;;;0.93;0.80;;;20.70;62.20;;;;;;5050408;28;20203;-64
2023/04/28 07:54:39;;;;;;;1.42;1.05;;;20.60;62.00;;;;;;5055345;28;20203;-64
2023/04/28 07:57:06;;;;;;;3.40;0.90;;;20.70;62.10;;;;;;5060107;28;20207;-64
2023/04/28 07:59:34;;;;;;;1.13;1.02;;;20.70;62.20;;;;;;5059469;28;20190;-65
2023/04/28 08:02:01;;;;;;;5.78;1.20;;;20.70;62.20;;;;;;5063542;28;20199;-64
2023/04/28 08:04:30;;;;;;;1.02;0.88;;;20.60;62.10;;;;;;5068658;28;20248;-64
2023/04/28 08:06:56;;;;;;;1.77;1.10;;;20.70;62.10;;;;;;5052189;28;20206;-64
2023/04/28 08:09:23;;;;;;;1.45;1.00;;;20.70;62.10;;;;;;5057015;28;20210;-64
2023/04/28 08:11:50;;;;;;;1.42;1.10;;;20.70;62.20;;;;;;5062676;28;20214;-65
2023/04/28 08:14:17;;;;;;;1.05;0.80;;;20.70;62.10;;;;;;5055834;28;20663;-64
2023/04/28 08:16:46;;;;;;;1.10;1.00;;;20.70;62.20;;;;;;5056465;28;20200;-67
2023/04/28 08:19:12;;;;;;;2.33;1.40;;;20.70;62.20;;;;;;5056959;28;20789;-64
2023/04/28 08:21:39;;;;;;;1.90;0.90;;;20.70;62.60;;;;;;5057431;28;20218;-68
2023/04/28 08:24:07;;;;;;;4.57;1.15;;;20.60;63.10;;;;;;5057122;28;20191;-68
2023/04/28 08:26:33;;;;;;;1.80;1.00;;;20.70;63.20;;;;;;5060272;28;20629;-63
2023/04/28 08:29:00;;;;;;;1.73;1.30;;;20.70;63.30;;;;;;5057231;28;20222;-63
2023/04/28 08:31:27;;;;;;;2.70;1.42;;;20.70;63.20;;;;;;5059183;28;20199;-63
2023/04/28 08:33:55;;;;;;;2.20;0.90;;;20.70;63.30;;;;;;5059426;28;20567;-62
2023/04/28 08:36:22;;;;;;;2.17;1.05;;;20.70;63.20;;;;;;5065275;28;20199;-64
2023/04/28 08:38:49;;;;;;;2.42;1.00;;;20.70;63.20;;;;;;5055870;28;20234;-64
2023/04/28 08:41:16;;;;;;;1.73;0.80;;;20.70;63.10;;;;;;5049342;28;20750;-64
2023/04/28 08:43:44;;;;;;;5.35;1.50;;;20.70;63.10;;;;;;5061038;28;20256;-65
2023/04/28 08:46:11;;;;;;;3.78;0.90;;;20.80;63.20;;;;;;5048416;28;20715;-66
2023/04/28 08:48:40;;;;;;;2.40;1.20;;;20.80;63.20;;;;;;5050871;28;20203;-63
2023/04/28 08:51:09;;;;;;;1.30;1.00;;;20.70;63.00;;;;;;5053420;28;20230;-64
2023/04/28 08:53:37;;;;;;;3.78;1.15;;;20.70;62.90;;;;;;5058543;28;20190;-64
2023/04/28 08:56:06;;;;;;;1.10;0.95;;;20.70;62.90;;;;;;5053471;28;20692;-65
2023/04/28 08:58:35;;;;;;;1.33;1.13;;;20.70;62.90;;;;;;5059993;28;20210;-65
2023/04/28 09:01:03;;;;;;;1.65;1.10;;;20.70;62.90;;;;;;5053620;28;20210;-64
2023/04/28 09:03:30;;;;;;;1.42;0.95;;;20.70;62.90;;;;;;5055483;28;20195;-63
2023/04/28 09:05:57;;;;;;;1.23;1.00;;;20.70;62.80;;;;;;5055297;28;20202;-65
2023/04/28 09:08:25;;;;;;;1.30;1.13;;;20.70;62.80;;;;;;5057904;28;20252;-64
2023/04/28 09:11:06;;;;;;;1.45;1.13;;;20.70;62.80;;;;;;5065717;28;20621;-64
2023/04/28 09:13:33;;;;;;;1.00;0.90;;;20.70;62.70;;;;;;5057576;28;20214;-64
2023/04/28 09:16:01;;;;;;;1.10;0.95;;;20.80;62.80;;;;;;5057067;28;20202;-64
2023/04/28 09:18:28;;;;;;;6.15;0.90;;;20.80;62.80;;;;;;5054433;28;20188;-64
2023/04/28 09:21:03;;;;;;;2.83;1.23;;;20.80;62.80;;;;;;5056216;28;20290;-65
2023/04/28 09:23:32;;;;;;;1.10;0.90;;;20.80;62.80;;;;;;5056319;28;20254;-63
2023/04/28 09:26:00;;;;;;;1.00;0.90;;;20.80;62.80;;;;;;5067073;28;20253;-65
2023/04/28 09:28:27;;;;;;;3.20;1.00;;;20.80;62.80;;;;;;5061153;28;20401;-64
2023/04/28 09:30:54;;;;;;;2.65;0.90;;;20.80;62.80;;;;;;5056662;28;20223;-64
2023/04/28 09:33:21;;;;;;;1.20;1.00;;;20.80;62.80;;;;;;5059928;28;20279;-63
2023/04/28 09:35:48;;;;;;;2.20;1.00;;;20.80;62.80;;;;;;5058396;28;20740;-64
2023/04/28 09:38:15;;;;;;;1.83;1.10;;;20.70;62.60;;;;;;5058920;28;20196;-64
2023/04/28 09:40:59;;;;;;;2.83;0.85;;;20.70;62.60;;;;;;5060278;28;20563;-65
2023/04/28 09:43:28;;;;;;;1.40;0.88;;;20.70;62.60;;;;;;5055430;28;20203;-65
2023/04/28 09:45:56;;;;;;;1.50;1.05;;;20.70;62.70;;;;;;5060663;28;20571;-64
2023/04/28 09:48:30;;;;;;;1.50;0.90;;;20.70;62.70;;;;;;5060479;28;20196;-64
2023/04/28 09:50:58;;;;;;;1.40;0.90;;;20.80;62.70;;;;;;5063095;28;20240;-63
2023/04/28 09:53:25;;;;;;;1.10;1.00;;;20.80;62.80;;;;;;5064282;28;20290;-63
2023/04/28 09:55:54;;;;;;;1.38;0.90;;;20.70;62.60;;;;;;5061292;28;20253;-64
2023/04/28 09:58:22;;;;;;;1.23;0.90;;;20.70;62.60;;;;;;5055529;28;20210;-65
2023/04/28 10:00:53;;;;;;;1.10;0.80;;;20.80;62.70;;;;;;5057891;28;20203;-64
2023/04/28 10:03:23;;;;;;;1.45;1.13;;;20.80;62.70;;;;;;5053999;28;20306;-64
2023/04/28 10:05:50;;;;;;;3.15;1.30;;;20.80;62.70;;;;;;5062144;28;20202;-69
2023/04/28 10:08:17;;;;;;;1.83;1.20;;;20.80;63.00;;;;;;5051825;28;20191;-71
2023/04/28 10:10:44;;;;;;;1.08;0.85;;;20.80;62.80;;;;;;5059393;28;20215;-67
2023/04/28 10:13:11;;;;;;;0.98;0.80;;;20.80;62.90;;;;;;5059337;28;20370;-66
2023/04/28 10:15:40;;;;;;;2.58;1.17;;;20.80;63.10;;;;;;5051560;28;20238;-68
2023/04/28 10:18:09;;;;;;;1.25;0.82;;;20.90;63.20;;;;;;5060171;28;20202;-68
2023/04/28 10:20:36;;;;;;;1.48;1.20;;;20.90;63.20;;;;;;5056652;28;20665;-66
2023/04/28 10:23:31;;;;;;;4.30;1.50;;;21.00;63.40;;;;;;5056818;28;20219;-65
2023/04/28 10:25:58;;;;;;;1.83;0.90;;;20.90;63.40;;;;;;5055221;28;20552;-69
2023/04/28 10:28:26;;;;;;;1.70;1.08;;;21.00;63.40;;;;;;5060521;28;20202;-67
2023/04/28 10:31:13;;;;;;;2.05;1.02;;;21.00;63.50;;;;;;5053391;28;20621;-65
2023/04/28 10:33:41;;;;;;;1.20;0.98;;;21.00;63.50;;;;;;5059334;28;20199;-64
2023/04/28 10:36:08;;;;;;;2.78;0.85;;;21.10;63.70;;;;;;5062529;28;20191;-69
2023/04/28 10:38:35;;;;;;;1.75;1.08;;;21.10;63.70;;;;;;5061739;28;20191;-68
2023/04/28 10:41:03;;;;;;;0.90;0.80;;;21.10;63.90;;;;;;5055275;28;20257;-66
2023/04/28 10:43:38;;;;;;;1.40;1.00;;;21.20;63.90;;;;;;5056770;28;20311;-65
2023/04/28 10:46:09;;;;;;;1.48;0.90;;;21.20;63.90;;;;;;5062043;28;20248;-66
2023/04/28 10:49:07;;;;;;;1.30;1.15;;;21.20;63.60;;;;;;5060123;28;20207;-66
2023/04/28 10:51:34;;;;;;;1.13;1.02;;;21.20;63.60;;;;;;5058038;28;20215;-66
2023/04/28 10:54:13;;;;;;;1.42;0.90;;;21.20;63.60;;;;;;5054039;28;20202;-65
2023/04/28 10:57:02;;;;;;;4.45;1.08;;;21.20;63.50;;;;;;5045824;28;20199;-66
2023/04/28 10:59:29;;;;;;;1.15;0.82;;;21.20;63.40;;;;;;5052518;28;20217;-65
2023/04/28 11:02:16;;;;;;;1.55;1.02;;;21.20;63.20;;;;;;5059098;28;20683;-67
2023/04/28 11:05:11;;;;;;;1.30;1.10;;;21.30;63.30;;;;;;5049461;28;20191;-67
2023/04/28 11:07:38;;;;;;;1.35;1.00;;;21.30;63.20;;;;;;5055348;28;20191;-67
2023/04/28 11:10:05;;;;;;;1.47;0.83;;;21.30;63.10;;;;;;5046097;28;20222;-65
2023/04/28 11:12:32;;;;;;;1.75;0.80;;;21.30;63.10;;;;;;5050570;28;20510;-58
2023/04/28 11:15:12;;;;;;;3.33;0.90;;;21.30;63.00;;;;;;5047669;28;20331;-61
2023/04/28 11:17:40;;;;;;;1.02;0.82;;;21.40;63.20;;;;;;5052778;28;20294;-56
2023/04/28 11:20:12;;;;;;;1.00;0.80;;;21.40;63.30;;;;;;5053971;28;20341;-61
2023/04/28 11:22:41;;;;;;;1.50;1.00;;;21.40;63.40;;;;;;5046649;28;20211;-64
2023/04/28 11:25:08;;;;;;;1.80;1.02;;;21.50;63.40;;;;;;5063310;28;20255;-64
2023/04/28 11:27:36;;;;;;;1.60;1.20;;;21.40;63.40;;;;;;5049014;28;20257;-63
2023/04/28 11:30:04;;;;;;;1.75;0.90;;;21.50;63.50;;;;;;5047380;28;20489;-63
2023/04/28 11:32:33;;;;;;;1.45;0.98;;;21.50;63.50;;;;;;5044934;28;20203;-64
2023/04/28 11:35:00;;;;;;;0.80;0.60;;;21.50;63.50;;;;;;5056096;28;20195;-64
2023/04/28 11:37:26;;;;;;;1.85;0.90;;;21.50;63.50;;;;;;5041372;28;20466;-64
2023/04/28 11:39:56;;;;;;;1.20;0.90;;;21.60;63.60;;;;;;5044657;28;20209;-64
2023/04/28 11:42:24;;;;;;;2.55;0.82;;;21.60;63.70;;;;;;5051782;28;20480;-63
2023/04/28 11:44:53;;;;;;;1.25;0.82;;;21.60;63.70;;;;;;5044849;28;20213;-65
2023/04/28 11:47:30;;;;;;;1.02;0.93;;;21.60;63.60;;;;;;5051503;28;20198;-66
2023/04/28 11:49:57;;;;;;;1.70;0.90;;;21.60;63.50;;;;;;5052202;28;20645;-67
2023/04/28 11:52:26;;;;;;;1.10;1.00;;;21.70;63.70;;;;;;5043728;28;21044;-67
2023/04/28 11:54:59;;;;;;;1.10;0.98;;;21.70;63.70;;;;;;5048072;28;20654;-66
2023/04/28 11:57:26;;;;;;;1.00;0.90;;;21.70;63.70;;;;;;5044775;28;20191;-67
2023/04/28 11:59:53;;;;;;;0.90;0.70;;;21.70;63.60;;;;;;5046067;28;20226;-68
2023/04/28 12:02:26;;;;;;;1.10;0.88;;;21.70;63.60;;;;;;5049991;28;20477;-68
2023/04/28 12:04:53;;;;;;;1.40;1.20;;;21.80;63.70;;;;;;5050439;28;20196;-58
2023/04/28 12:07:20;;;;;;;1.35;0.90;;;21.80;63.70;;;;;;5033494;28;20207;-53
2023/04/28 12:09:48;;;;;;;1.33;0.93;;;21.80;63.70;;;;;;5040311;28;20191;-62
2023/04/28 12:12:28;;;;;;;1.30;0.98;;;21.80;63.70;;;;;;5044335;28;20600;-64
2023/04/28 12:14:57;;;;;;;1.40;1.30;;;21.80;63.70;;;;;;5052440;28;20290;-59
2023/04/28 12:17:25;;;;;;;0.93;0.82;;;21.80;63.70;;;;;;5060394;28;20637;-53
2023/04/28 12:19:52;;;;;;;2.95;1.15;;;21.90;63.80;;;;;;5059344;28;20199;-54
2023/04/28 12:22:18;;;;;;;0.88;0.70;;;21.90;63.70;;;;;;5055590;28;20217;-55
2023/04/28 12:24:45;;;;;;;1.07;0.90;;;21.90;63.70;;;;;;5065886;28;20195;-55
2023/04/28 12:27:20;;;;;;;1.53;0.90;;;21.90;63.70;;;;;;5052323;28;20488;-55
2023/04/28 12:29:47;;;;;;;2.45;0.95;;;21.90;63.70;;;;;;5048649;28;20522;-51
2023/04/28 12:32:14;;;;;;;1.00;0.87;;;21.90;63.70;;;;;;5060606;28;20227;-62
2023/04/28 12:34:43;;;;;;;1.27;1.00;;;21.90;63.60;;;;;;5055100;28;20467;-62
2023/04/28 12:37:11;;;;;;;1.20;0.90;;;22.00;63.80;;;;;;5058150;28;20540;-61
2023/04/28 12:39:40;;;;;;;1.10;0.90;;;22.00;63.70;;;;;;5062087;28;20456;-63
2023/04/28 12:42:07;;;;;;;1.23;0.90;;;22.00;63.70;;;;;;5064585;28;20468;-53
2023/04/28 12:44:36;;;;;;;4.23;1.13;;;22.00;63.70;;;;;;5062808;28;20453;-59
2023/04/28 12:47:04;;;;;;;1.23;0.97;;;22.00;63.60;;;;;;5051285;28;20537;-61
2023/04/28 12:49:31;;;;;;;1.10;0.80;;;22.00;63.60;;;;;;5054118;28;20470;-57
2023/04/28 12:51:58;;;;;;;1.20;0.90;;;22.00;63.60;;;;;;5044687;28;20481;-59